sensor_id;sensor_type;location;lat;lon;timestamp;P1;durP1;ratioP1;P2;durP2;ratioP2
68386;SDS011;55338;43.062;25.624;2022-12-18T00:01:01;10.27;;;5.47;;
68386;SDS011;55338;43.062;25.624;2022-12-18T00:03:34;13.20;;;5.17;;
68386;SDS011;55338;43.062;25.624;2022-12-18T00:06:01;9.77;;;5.25;;
68386;SDS011;55338;43.062;25.624;2022-12-18T00:08:27;8.82;;;4.88;;
68386;SDS011;55338;43.062;25.624;2022-12-18T00:10:53;11.82;;;5.53;;
68386;SDS011;55338;43.062;25.624;2022-12-18T00:13:19;11.15;;;6.00;;
68386;SDS011;55338;43.062;25.624;2022-12-18T00:15:45;10.53;;;5.63;;
68386;SDS011;55338;43.062;25.624;2022-12-18T00:18:11;11.32;;;4.75;;
68386;SDS011;55338;43.062;25.624;2022-12-18T00:20:37;8.40;;;3.97;;
68386;SDS011;55338;43.062;25.624;2022-12-18T00:23:04;8.68;;;4.15;;
68386;SDS011;55338;43.062;25.624;2022-12-18T00:25:34;7.82;;;4.00;;
68386;SDS011;55338;43.062;25.624;2022-12-18T00:28:01;8.63;;;4.60;;
68386;SDS011;55338;43.062;25.624;2022-12-18T00:30:30;9.05;;;4.78;;
68386;SDS011;55338;43.062;25.624;2022-12-18T00:32:55;9.63;;;4.93;;
68386;SDS011;55338;43.062;25.624;2022-12-18T00:35:22;7.97;;;4.32;;
68386;SDS011;55338;43.062;25.624;2022-12-18T00:37:48;9.02;;;4.53;;
68386;SDS011;55338;43.062;25.624;2022-12-18T00:40:13;10.40;;;4.63;;
68386;SDS011;55338;43.062;25.624;2022-12-18T00:42:40;10.15;;;4.60;;
68386;SDS011;55338;43.062;25.624;2022-12-18T00:45:30;9.15;;;4.50;;
68386;SDS011;55338;43.062;25.624;2022-12-18T00:47:56;8.70;;;5.13;;
68386;SDS011;55338;43.062;25.624;2022-12-18T00:50:23;8.15;;;4.43;;
68386;SDS011;55338;43.062;25.624;2022-12-18T00:52:49;7.78;;;4.18;;
68386;SDS011;55338;43.062;25.624;2022-12-18T00:55:16;9.07;;;4.30;;
68386;SDS011;55338;43.062;25.624;2022-12-18T00:57:42;9.18;;;4.35;;
68386;SDS011;55338;43.062;25.624;2022-12-18T01:00:10;9.77;;;4.07;;
68386;SDS011;55338;43.062;25.624;2022-12-18T01:02:37;8.82;;;4.68;;
68386;SDS011;55338;43.062;25.624;2022-12-18T01:05:03;8.10;;;3.83;;
68386;SDS011;55338;43.062;25.624;2022-12-18T01:07:29;10.52;;;4.35;;
68386;SDS011;55338;43.062;25.624;2022-12-18T01:09:55;9.90;;;4.97;;
68386;SDS011;55338;43.062;25.624;2022-12-18T01:12:21;8.83;;;4.30;;
68386;SDS011;55338;43.062;25.624;2022-12-18T01:14:47;9.82;;;4.53;;
68386;SDS011;55338;43.062;25.624;2022-12-18T01:17:12;12.10;;;4.47;;
68386;SDS011;55338;43.062;25.624;2022-12-18T01:19:39;8.93;;;4.47;;
68386;SDS011;55338;43.062;25.624;2022-12-18T01:22:05;9.15;;;4.43;;
68386;SDS011;55338;43.062;25.624;2022-12-18T01:24:31;9.68;;;5.13;;
68386;SDS011;55338;43.062;25.624;2022-12-18T01:26:56;11.85;;;4.63;;
68386;SDS011;55338;43.062;25.624;2022-12-18T01:29:23;12.30;;;4.70;;
68386;SDS011;55338;43.062;25.624;2022-12-18T01:31:49;8.98;;;4.20;;
68386;SDS011;55338;43.062;25.624;2022-12-18T01:34:14;9.13;;;4.47;;
68386;SDS011;55338;43.062;25.624;2022-12-18T01:36:40;9.95;;;4.88;;
68386;SDS011;55338;43.062;25.624;2022-12-18T01:39:07;10.80;;;4.67;;
68386;SDS011;55338;43.062;25.624;2022-12-18T01:41:36;11.07;;;4.88;;
68386;SDS011;55338;43.062;25.624;2022-12-18T01:47:28;9.75;;;4.70;;
68386;SDS011;55338;43.062;25.624;2022-12-18T01:50:20;11.10;;;4.97;;
68386;SDS011;55338;43.062;25.624;2022-12-18T01:52:50;10.18;;;4.45;;
68386;SDS011;55338;43.062;25.624;2022-12-18T01:55:20;8.15;;;4.50;;
68386;SDS011;55338;43.062;25.624;2022-12-18T01:57:50;10.43;;;4.95;;
68386;SDS011;55338;43.062;25.624;2022-12-18T02:00:19;10.98;;;5.50;;
68386;SDS011;55338;43.062;25.624;2022-12-18T02:02:48;17.60;;;4.95;;
68386;SDS011;55338;43.062;25.624;2022-12-18T02:05:15;10.27;;;4.85;;
68386;SDS011;55338;43.062;25.624;2022-12-18T02:13:40;9.60;;;4.30;;
68386;SDS011;55338;43.062;25.624;2022-12-18T02:16:18;9.35;;;4.80;;
68386;SDS011;55338;43.062;25.624;2022-12-18T02:19:01;11.45;;;4.53;;
68386;SDS011;55338;43.062;25.624;2022-12-18T02:21:46;8.35;;;4.35;;
68386;SDS011;55338;43.062;25.624;2022-12-18T02:27:07;11.43;;;5.00;;
68386;SDS011;55338;43.062;25.624;2022-12-18T02:29:36;10.57;;;5.07;;
68386;SDS011;55338;43.062;25.624;2022-12-18T02:32:03;10.82;;;5.22;;
68386;SDS011;55338;43.062;25.624;2022-12-18T02:34:37;9.95;;;4.88;;
68386;SDS011;55338;43.062;25.624;2022-12-18T02:37:05;10.23;;;4.35;;
68386;SDS011;55338;43.062;25.624;2022-12-18T02:39:35;8.87;;;4.30;;
68386;SDS011;55338;43.062;25.624;2022-12-18T02:42:03;9.52;;;5.30;;
68386;SDS011;55338;43.062;25.624;2022-12-18T02:44:33;11.10;;;4.57;;
68386;SDS011;55338;43.062;25.624;2022-12-18T02:47:00;9.73;;;4.00;;
68386;SDS011;55338;43.062;25.624;2022-12-18T02:57:46;9.02;;;4.30;;
68386;SDS011;55338;43.062;25.624;2022-12-18T03:00:20;9.80;;;3.50;;
68386;SDS011;55338;43.062;25.624;2022-12-18T03:02:57;10.05;;;4.70;;
68386;SDS011;55338;43.062;25.624;2022-12-18T03:05:35;9.20;;;4.60;;
68386;SDS011;55338;43.062;25.624;2022-12-18T03:08:13;11.43;;;4.72;;
68386;SDS011;55338;43.062;25.624;2022-12-18T03:10:52;10.80;;;4.95;;
68386;SDS011;55338;43.062;25.624;2022-12-18T03:13:43;14.15;;;5.13;;
68386;SDS011;55338;43.062;25.624;2022-12-18T03:16:14;9.38;;;4.20;;
68386;SDS011;55338;43.062;25.624;2022-12-18T03:21:12;11.40;;;5.72;;
68386;SDS011;55338;43.062;25.624;2022-12-18T03:23:42;11.02;;;5.55;;
68386;SDS011;55338;43.062;25.624;2022-12-18T03:26:12;10.60;;;4.68;;
68386;SDS011;55338;43.062;25.624;2022-12-18T03:28:49;10.27;;;4.55;;
68386;SDS011;55338;43.062;25.624;2022-12-18T03:31:21;12.10;;;4.90;;
68386;SDS011;55338;43.062;25.624;2022-12-18T03:36:19;11.73;;;4.60;;
68386;SDS011;55338;43.062;25.624;2022-12-18T03:38:45;9.23;;;4.68;;
68386;SDS011;55338;43.062;25.624;2022-12-18T03:41:15;16.25;;;5.07;;
68386;SDS011;55338;43.062;25.624;2022-12-18T03:44:03;12.35;;;5.13;;
68386;SDS011;55338;43.062;25.624;2022-12-18T03:52:01;11.77;;;5.18;;
68386;SDS011;55338;43.062;25.624;2022-12-18T03:54:34;12.07;;;5.47;;
68386;SDS011;55338;43.062;25.624;2022-12-18T03:57:04;12.50;;;6.32;;
68386;SDS011;55338;43.062;25.624;2022-12-18T03:59:41;12.07;;;5.43;;
68386;SDS011;55338;43.062;25.624;2022-12-18T04:02:09;12.18;;;5.82;;
68386;SDS011;55338;43.062;25.624;2022-12-18T04:04:35;14.13;;;5.45;;
68386;SDS011;55338;43.062;25.624;2022-12-18T04:07:04;13.02;;;5.95;;
68386;SDS011;55338;43.062;25.624;2022-12-18T04:09:32;14.40;;;5.50;;
68386;SDS011;55338;43.062;25.624;2022-12-18T04:11:58;11.32;;;5.97;;
68386;SDS011;55338;43.062;25.624;2022-12-18T04:14:24;12.32;;;5.95;;
68386;SDS011;55338;43.062;25.624;2022-12-18T04:16:50;14.60;;;7.30;;
68386;SDS011;55338;43.062;25.624;2022-12-18T04:19:16;17.90;;;7.97;;
68386;SDS011;55338;43.062;25.624;2022-12-18T04:21:42;16.43;;;8.37;;
68386;SDS011;55338;43.062;25.624;2022-12-18T04:24:09;16.25;;;8.18;;
68386;SDS011;55338;43.062;25.624;2022-12-18T04:26:34;16.38;;;8.00;;
68386;SDS011;55338;43.062;25.624;2022-12-18T04:29:00;14.07;;;7.27;;
68386;SDS011;55338;43.062;25.624;2022-12-18T04:31:26;19.42;;;8.52;;
68386;SDS011;55338;43.062;25.624;2022-12-18T04:33:52;18.42;;;8.80;;
68386;SDS011;55338;43.062;25.624;2022-12-18T04:36:18;19.00;;;10.13;;
68386;SDS011;55338;43.062;25.624;2022-12-18T04:38:44;17.48;;;8.95;;
68386;SDS011;55338;43.062;25.624;2022-12-18T04:41:09;20.35;;;9.73;;
68386;SDS011;55338;43.062;25.624;2022-12-18T04:43:35;22.00;;;10.30;;
68386;SDS011;55338;43.062;25.624;2022-12-18T04:46:02;22.38;;;10.43;;
68386;SDS011;55338;43.062;25.624;2022-12-18T04:48:32;20.10;;;9.60;;
68386;SDS011;55338;43.062;25.624;2022-12-18T04:50:58;21.48;;;9.68;;
68386;SDS011;55338;43.062;25.624;2022-12-18T04:53:24;20.02;;;10.13;;
68386;SDS011;55338;43.062;25.624;2022-12-18T04:55:50;16.53;;;7.63;;
68386;SDS011;55338;43.062;25.624;2022-12-18T04:58:15;16.23;;;8.15;;
68386;SDS011;55338;43.062;25.624;2022-12-18T05:00:41;14.83;;;7.30;;
68386;SDS011;55338;43.062;25.624;2022-12-18T05:03:07;16.50;;;7.93;;
68386;SDS011;55338;43.062;25.624;2022-12-18T05:05:34;18.30;;;8.57;;
68386;SDS011;55338;43.062;25.624;2022-12-18T05:08:00;17.38;;;8.55;;
68386;SDS011;55338;43.062;25.624;2022-12-18T05:10:25;17.73;;;8.50;;
68386;SDS011;55338;43.062;25.624;2022-12-18T05:12:52;20.93;;;9.60;;
68386;SDS011;55338;43.062;25.624;2022-12-18T05:15:31;19.13;;;9.23;;
68386;SDS011;55338;43.062;25.624;2022-12-18T05:17:58;21.73;;;10.32;;
68386;SDS011;55338;43.062;25.624;2022-12-18T05:20:24;23.13;;;10.75;;
68386;SDS011;55338;43.062;25.624;2022-12-18T05:22:51;17.95;;;9.35;;
68386;SDS011;55338;43.062;25.624;2022-12-18T05:25:17;20.10;;;10.20;;
68386;SDS011;55338;43.062;25.624;2022-12-18T05:27:45;20.45;;;10.02;;
68386;SDS011;55338;43.062;25.624;2022-12-18T05:30:11;20.35;;;9.57;;
68386;SDS011;55338;43.062;25.624;2022-12-18T05:32:38;20.15;;;9.35;;
68386;SDS011;55338;43.062;25.624;2022-12-18T05:35:04;20.15;;;9.52;;
68386;SDS011;55338;43.062;25.624;2022-12-18T05:37:31;21.47;;;9.30;;
68386;SDS011;55338;43.062;25.624;2022-12-18T05:39:57;19.05;;;8.43;;
68386;SDS011;55338;43.062;25.624;2022-12-18T05:42:23;20.50;;;9.73;;
68386;SDS011;55338;43.062;25.624;2022-12-18T05:44:48;19.58;;;9.65;;
68386;SDS011;55338;43.062;25.624;2022-12-18T05:47:14;22.08;;;10.05;;
68386;SDS011;55338;43.062;25.624;2022-12-18T05:49:40;17.67;;;9.00;;
68386;SDS011;55338;43.062;25.624;2022-12-18T05:52:06;18.33;;;9.07;;
68386;SDS011;55338;43.062;25.624;2022-12-18T05:54:31;19.80;;;10.33;;
68386;SDS011;55338;43.062;25.624;2022-12-18T05:56:57;22.88;;;9.38;;
68386;SDS011;55338;43.062;25.624;2022-12-18T05:59:23;17.55;;;8.73;;
68386;SDS011;55338;43.062;25.624;2022-12-18T06:01:49;18.97;;;9.27;;
68386;SDS011;55338;43.062;25.624;2022-12-18T06:04:15;21.75;;;9.95;;
68386;SDS011;55338;43.062;25.624;2022-12-18T06:06:40;19.90;;;8.77;;
68386;SDS011;55338;43.062;25.624;2022-12-18T06:09:06;17.95;;;8.60;;
68386;SDS011;55338;43.062;25.624;2022-12-18T06:11:35;18.58;;;9.15;;
68386;SDS011;55338;43.062;25.624;2022-12-18T06:14:02;18.65;;;8.65;;
68386;SDS011;55338;43.062;25.624;2022-12-18T06:16:29;16.60;;;8.67;;
68386;SDS011;55338;43.062;25.624;2022-12-18T06:18:58;19.50;;;8.90;;
68386;SDS011;55338;43.062;25.624;2022-12-18T06:21:26;21.60;;;8.77;;
68386;SDS011;55338;43.062;25.624;2022-12-18T06:23:52;13.23;;;6.32;;
68386;SDS011;55338;43.062;25.624;2022-12-18T06:26:19;11.65;;;5.82;;
68386;SDS011;55338;43.062;25.624;2022-12-18T06:28:44;11.97;;;5.27;;
68386;SDS011;55338;43.062;25.624;2022-12-18T06:31:11;11.52;;;6.18;;
68386;SDS011;55338;43.062;25.624;2022-12-18T06:33:37;12.98;;;5.55;;
68386;SDS011;55338;43.062;25.624;2022-12-18T06:36:04;14.10;;;6.00;;
68386;SDS011;55338;43.062;25.624;2022-12-18T06:38:33;15.68;;;6.18;;
68386;SDS011;55338;43.062;25.624;2022-12-18T06:41:00;15.55;;;6.70;;
68386;SDS011;55338;43.062;25.624;2022-12-18T06:43:25;13.55;;;6.30;;
68386;SDS011;55338;43.062;25.624;2022-12-18T06:45:57;13.55;;;6.68;;
68386;SDS011;55338;43.062;25.624;2022-12-18T06:48:24;11.98;;;6.13;;
68386;SDS011;55338;43.062;25.624;2022-12-18T06:50:49;15.27;;;6.87;;
68386;SDS011;55338;43.062;25.624;2022-12-18T06:53:15;14.75;;;6.82;;
68386;SDS011;55338;43.062;25.624;2022-12-18T06:55:41;15.90;;;6.67;;
68386;SDS011;55338;43.062;25.624;2022-12-18T06:58:07;15.95;;;7.65;;
68386;SDS011;55338;43.062;25.624;2022-12-18T07:00:33;14.90;;;6.60;;
68386;SDS011;55338;43.062;25.624;2022-12-18T07:02:59;14.02;;;6.72;;
68386;SDS011;55338;43.062;25.624;2022-12-18T07:05:25;14.63;;;6.73;;
68386;SDS011;55338;43.062;25.624;2022-12-18T07:07:51;13.30;;;6.47;;
68386;SDS011;55338;43.062;25.624;2022-12-18T07:10:17;15.40;;;6.67;;
68386;SDS011;55338;43.062;25.624;2022-12-18T07:12:43;15.38;;;6.50;;
68386;SDS011;55338;43.062;25.624;2022-12-18T07:15:09;14.13;;;6.85;;
68386;SDS011;55338;43.062;25.624;2022-12-18T07:17:35;14.48;;;7.28;;
68386;SDS011;55338;43.062;25.624;2022-12-18T07:20:01;16.33;;;7.20;;
68386;SDS011;55338;43.062;25.624;2022-12-18T07:22:26;12.13;;;6.78;;
68386;SDS011;55338;43.062;25.624;2022-12-18T07:24:52;14.52;;;7.03;;
68386;SDS011;55338;43.062;25.624;2022-12-18T07:27:18;15.07;;;7.07;;
68386;SDS011;55338;43.062;25.624;2022-12-18T07:29:44;15.15;;;7.40;;
68386;SDS011;55338;43.062;25.624;2022-12-18T07:32:09;16.13;;;7.50;;
68386;SDS011;55338;43.062;25.624;2022-12-18T07:34:35;14.25;;;7.18;;
68386;SDS011;55338;43.062;25.624;2022-12-18T07:37:01;14.47;;;6.53;;
68386;SDS011;55338;43.062;25.624;2022-12-18T07:39:27;16.13;;;7.00;;
68386;SDS011;55338;43.062;25.624;2022-12-18T07:41:52;16.87;;;7.00;;
68386;SDS011;55338;43.062;25.624;2022-12-18T07:44:37;15.07;;;7.10;;
68386;SDS011;55338;43.062;25.624;2022-12-18T07:47:03;17.08;;;7.05;;
68386;SDS011;55338;43.062;25.624;2022-12-18T07:49:29;19.43;;;6.93;;
68386;SDS011;55338;43.062;25.624;2022-12-18T07:51:55;15.98;;;6.85;;
68386;SDS011;55338;43.062;25.624;2022-12-18T07:54:21;14.88;;;7.05;;
68386;SDS011;55338;43.062;25.624;2022-12-18T07:56:48;16.67;;;7.50;;
68386;SDS011;55338;43.062;25.624;2022-12-18T07:59:13;15.70;;;7.63;;
68386;SDS011;55338;43.062;25.624;2022-12-18T08:01:40;15.73;;;7.75;;
68386;SDS011;55338;43.062;25.624;2022-12-18T08:04:05;17.40;;;7.68;;
68386;SDS011;55338;43.062;25.624;2022-12-18T08:06:31;16.55;;;7.53;;
68386;SDS011;55338;43.062;25.624;2022-12-18T08:08:57;15.68;;;7.10;;
68386;SDS011;55338;43.062;25.624;2022-12-18T08:11:23;20.07;;;8.33;;
68386;SDS011;55338;43.062;25.624;2022-12-18T08:13:51;17.58;;;7.93;;
68386;SDS011;55338;43.062;25.624;2022-12-18T08:16:17;17.15;;;7.45;;
68386;SDS011;55338;43.062;25.624;2022-12-18T08:18:43;18.23;;;8.15;;
68386;SDS011;55338;43.062;25.624;2022-12-18T08:23:35;14.20;;;6.70;;
68386;SDS011;55338;43.062;25.624;2022-12-18T08:26:01;17.23;;;7.30;;
68386;SDS011;55338;43.062;25.624;2022-12-18T08:28:27;13.07;;;5.93;;
68386;SDS011;55338;43.062;25.624;2022-12-18T08:30:52;15.35;;;6.53;;
68386;SDS011;55338;43.062;25.624;2022-12-18T08:33:18;16.50;;;7.20;;
68386;SDS011;55338;43.062;25.624;2022-12-18T08:35:44;15.63;;;7.45;;
68386;SDS011;55338;43.062;25.624;2022-12-18T08:38:10;12.17;;;6.27;;
68386;SDS011;55338;43.062;25.624;2022-12-18T08:40:35;13.40;;;6.47;;
68386;SDS011;55338;43.062;25.624;2022-12-18T08:43:01;12.87;;;5.27;;
68386;SDS011;55338;43.062;25.624;2022-12-18T08:45:45;12.00;;;5.88;;
68386;SDS011;55338;43.062;25.624;2022-12-18T08:48:11;12.82;;;6.10;;
68386;SDS011;55338;43.062;25.624;2022-12-18T08:50:37;16.13;;;6.68;;
68386;SDS011;55338;43.062;25.624;2022-12-18T08:53:03;15.80;;;6.85;;
68386;SDS011;55338;43.062;25.624;2022-12-18T08:55:29;17.17;;;6.73;;
68386;SDS011;55338;43.062;25.624;2022-12-18T08:57:54;14.77;;;6.63;;
68386;SDS011;55338;43.062;25.624;2022-12-18T09:00:20;17.83;;;7.33;;
68386;SDS011;55338;43.062;25.624;2022-12-18T09:02:46;15.35;;;7.22;;
68386;SDS011;55338;43.062;25.624;2022-12-18T09:05:12;15.53;;;7.50;;
68386;SDS011;55338;43.062;25.624;2022-12-18T09:07:38;15.52;;;6.90;;
68386;SDS011;55338;43.062;25.624;2022-12-18T09:10:04;16.42;;;7.30;;
68386;SDS011;55338;43.062;25.624;2022-12-18T09:12:30;13.82;;;7.05;;
68386;SDS011;55338;43.062;25.624;2022-12-18T09:14:56;16.50;;;7.10;;
68386;SDS011;55338;43.062;25.624;2022-12-18T09:17:22;17.20;;;6.60;;
68386;SDS011;55338;43.062;25.624;2022-12-18T09:19:48;16.55;;;7.03;;
68386;SDS011;55338;43.062;25.624;2022-12-18T09:22:14;17.70;;;7.40;;
68386;SDS011;55338;43.062;25.624;2022-12-18T09:24:40;13.88;;;6.80;;
68386;SDS011;55338;43.062;25.624;2022-12-18T09:27:05;16.42;;;7.50;;
68386;SDS011;55338;43.062;25.624;2022-12-18T09:29:31;15.10;;;6.73;;
68386;SDS011;55338;43.062;25.624;2022-12-18T09:31:57;17.95;;;6.97;;
68386;SDS011;55338;43.062;25.624;2022-12-18T09:34:23;16.27;;;6.80;;
68386;SDS011;55338;43.062;25.624;2022-12-18T09:36:49;15.13;;;7.00;;
68386;SDS011;55338;43.062;25.624;2022-12-18T09:39:15;13.77;;;6.80;;
68386;SDS011;55338;43.062;25.624;2022-12-18T09:41:43;12.93;;;5.90;;
68386;SDS011;55338;43.062;25.624;2022-12-18T09:44:17;12.93;;;6.32;;
68386;SDS011;55338;43.062;25.624;2022-12-18T09:46:46;13.38;;;6.05;;
68386;SDS011;55338;43.062;25.624;2022-12-18T09:49:19;11.57;;;5.32;;
68386;SDS011;55338;43.062;25.624;2022-12-18T09:54:39;12.88;;;6.03;;
68386;SDS011;55338;43.062;25.624;2022-12-18T09:57:06;12.13;;;5.95;;
68386;SDS011;55338;43.062;25.624;2022-12-18T09:59:40;14.98;;;7.10;;
68386;SDS011;55338;43.062;25.624;2022-12-18T10:02:13;14.88;;;7.53;;
68386;SDS011;55338;43.062;25.624;2022-12-18T10:04:41;17.73;;;6.93;;
68386;SDS011;55338;43.062;25.624;2022-12-18T10:10:16;15.60;;;6.63;;
68386;SDS011;55338;43.062;25.624;2022-12-18T10:12:52;13.13;;;6.47;;
68386;SDS011;55338;43.062;25.624;2022-12-18T10:15:31;14.35;;;6.22;;
68386;SDS011;55338;43.062;25.624;2022-12-18T10:18:22;13.50;;;6.43;;
68386;SDS011;55338;43.062;25.624;2022-12-18T10:20:53;14.52;;;6.57;;
68386;SDS011;55338;43.062;25.624;2022-12-18T10:26:13;13.75;;;5.18;;
68386;SDS011;55338;43.062;25.624;2022-12-18T10:28:39;11.30;;;5.23;;
68386;SDS011;55338;43.062;25.624;2022-12-18T10:31:06;16.23;;;6.28;;
68386;SDS011;55338;43.062;25.624;2022-12-18T10:33:39;13.73;;;5.70;;
68386;SDS011;55338;43.062;25.624;2022-12-18T10:36:06;11.95;;;5.50;;
68386;SDS011;55338;43.062;25.624;2022-12-18T10:38:32;14.50;;;6.13;;
68386;SDS011;55338;43.062;25.624;2022-12-18T10:41:03;13.13;;;6.10;;
68386;SDS011;55338;43.062;25.624;2022-12-18T10:46:00;13.88;;;5.97;;
68386;SDS011;55338;43.062;25.624;2022-12-18T10:48:33;14.45;;;6.07;;
68386;SDS011;55338;43.062;25.624;2022-12-18T10:51:05;12.18;;;5.63;;
68386;SDS011;55338;43.062;25.624;2022-12-18T10:53:33;12.98;;;6.40;;
68386;SDS011;55338;43.062;25.624;2022-12-18T10:56:01;13.60;;;6.90;;
68386;SDS011;55338;43.062;25.624;2022-12-18T10:58:36;15.20;;;5.88;;
68386;SDS011;55338;43.062;25.624;2022-12-18T11:01:05;12.85;;;6.30;;
68386;SDS011;55338;43.062;25.624;2022-12-18T11:03:37;14.30;;;6.28;;
68386;SDS011;55338;43.062;25.624;2022-12-18T11:06:07;12.30;;;6.28;;
68386;SDS011;55338;43.062;25.624;2022-12-18T11:08:37;15.00;;;6.00;;
68386;SDS011;55338;43.062;25.624;2022-12-18T11:11:04;13.07;;;5.63;;
68386;SDS011;55338;43.062;25.624;2022-12-18T11:13:41;14.70;;;6.50;;
68386;SDS011;55338;43.062;25.624;2022-12-18T11:16:20;12.23;;;5.50;;
68386;SDS011;55338;43.062;25.624;2022-12-18T11:18:46;13.30;;;5.80;;
68386;SDS011;55338;43.062;25.624;2022-12-18T11:21:12;13.30;;;6.38;;
68386;SDS011;55338;43.062;25.624;2022-12-18T11:23:46;11.75;;;5.68;;
68386;SDS011;55338;43.062;25.624;2022-12-18T11:26:12;13.07;;;5.88;;
68386;SDS011;55338;43.062;25.624;2022-12-18T11:28:40;11.07;;;5.45;;
68386;SDS011;55338;43.062;25.624;2022-12-18T11:33:53;11.07;;;4.90;;
68386;SDS011;55338;43.062;25.624;2022-12-18T11:36:20;9.90;;;5.15;;
68386;SDS011;55338;43.062;25.624;2022-12-18T11:38:48;13.25;;;5.28;;
68386;SDS011;55338;43.062;25.624;2022-12-18T11:41:24;9.25;;;4.22;;
68386;SDS011;55338;43.062;25.624;2022-12-18T11:44:31;11.60;;;5.68;;
68386;SDS011;55338;43.062;25.624;2022-12-18T11:50:09;11.95;;;5.32;;
68386;SDS011;55338;43.062;25.624;2022-12-18T11:52:39;11.85;;;4.90;;
68386;SDS011;55338;43.062;25.624;2022-12-18T12:00:34;14.07;;;5.55;;
68386;SDS011;55338;43.062;25.624;2022-12-18T12:05:48;12.90;;;6.57;;
68386;SDS011;55338;43.062;25.624;2022-12-18T12:16:39;18.13;;;8.23;;
68386;SDS011;55338;43.062;25.624;2022-12-18T12:21:58;17.75;;;8.27;;
68386;SDS011;55338;43.062;25.624;2022-12-18T12:24:48;15.52;;;7.35;;
68386;SDS011;55338;43.062;25.624;2022-12-18T12:38:52;17.38;;;7.45;;
68386;SDS011;55338;43.062;25.624;2022-12-18T12:41:23;19.88;;;7.78;;
68386;SDS011;55338;43.062;25.624;2022-12-18T12:44:15;18.30;;;7.63;;
68386;SDS011;55338;43.062;25.624;2022-12-18T12:47:05;16.15;;;7.43;;
68386;SDS011;55338;43.062;25.624;2022-12-18T12:49:38;17.80;;;8.45;;
68386;SDS011;55338;43.062;25.624;2022-12-18T12:52:06;18.48;;;7.43;;
68386;SDS011;55338;43.062;25.624;2022-12-18T12:54:37;19.52;;;8.23;;
68386;SDS011;55338;43.062;25.624;2022-12-18T13:02:47;17.20;;;7.70;;
68386;SDS011;55338;43.062;25.624;2022-12-18T13:07:59;19.70;;;7.85;;
68386;SDS011;55338;43.062;25.624;2022-12-18T13:10:32;16.13;;;7.30;;
68386;SDS011;55338;43.062;25.624;2022-12-18T13:13:09;19.35;;;8.85;;
68386;SDS011;55338;43.062;25.624;2022-12-18T13:15:45;17.50;;;7.93;;
68386;SDS011;55338;43.062;25.624;2022-12-18T13:20:47;22.20;;;8.98;;
68386;SDS011;55338;43.062;25.624;2022-12-18T13:23:29;20.50;;;8.35;;
68386;SDS011;55338;43.062;25.624;2022-12-18T13:31:13;17.58;;;7.13;;
68386;SDS011;55338;43.062;25.624;2022-12-18T13:33:44;19.17;;;7.97;;
68386;SDS011;55338;43.062;25.624;2022-12-18T13:36:27;18.45;;;8.95;;
68386;SDS011;55338;43.062;25.624;2022-12-18T13:41:39;19.55;;;8.75;;
68386;SDS011;55338;43.062;25.624;2022-12-18T13:46:53;22.33;;;9.15;;
68386;SDS011;55338;43.062;25.624;2022-12-18T13:51:51;20.57;;;8.13;;
68386;SDS011;55338;43.062;25.624;2022-12-18T13:54:32;21.98;;;8.57;;
68386;SDS011;55338;43.062;25.624;2022-12-18T13:57:06;23.75;;;9.52;;
68386;SDS011;55338;43.062;25.624;2022-12-18T13:59:52;26.55;;;9.70;;
68386;SDS011;55338;43.062;25.624;2022-12-18T14:02:20;23.03;;;9.00;;
68386;SDS011;55338;43.062;25.624;2022-12-18T14:04:48;22.08;;;9.10;;
68386;SDS011;55338;43.062;25.624;2022-12-18T14:09:43;24.10;;;9.70;;
68386;SDS011;55338;43.062;25.624;2022-12-18T14:12:14;21.90;;;9.53;;
68386;SDS011;55338;43.062;25.624;2022-12-18T14:15:01;23.10;;;9.88;;
68386;SDS011;55338;43.062;25.624;2022-12-18T14:17:30;22.67;;;9.32;;
68386;SDS011;55338;43.062;25.624;2022-12-18T14:19:56;24.17;;;10.30;;
68386;SDS011;55338;43.062;25.624;2022-12-18T14:22:23;23.35;;;9.43;;
68386;SDS011;55338;43.062;25.624;2022-12-18T14:27:45;13.27;;;5.53;;
68386;SDS011;55338;43.062;25.624;2022-12-18T14:30:47;23.13;;;9.20;;
68386;SDS011;55338;43.062;25.624;2022-12-18T14:33:15;19.75;;;7.57;;
68386;SDS011;55338;43.062;25.624;2022-12-18T14:38:26;19.90;;;8.83;;
68386;SDS011;55338;43.062;25.624;2022-12-18T14:41:10;23.23;;;8.80;;
68386;SDS011;55338;43.062;25.624;2022-12-18T14:43:39;23.63;;;9.35;;
68386;SDS011;55338;43.062;25.624;2022-12-18T14:46:24;20.00;;;8.75;;
68386;SDS011;55338;43.062;25.624;2022-12-18T14:48:54;24.60;;;10.00;;
68386;SDS011;55338;43.062;25.624;2022-12-18T14:51:21;19.30;;;8.80;;
68386;SDS011;55338;43.062;25.624;2022-12-18T14:56:35;19.50;;;8.63;;
68386;SDS011;55338;43.062;25.624;2022-12-18T14:59:24;22.95;;;9.75;;
68386;SDS011;55338;43.062;25.624;2022-12-18T15:09:37;21.77;;;9.85;;
68386;SDS011;55338;43.062;25.624;2022-12-18T15:12:04;24.98;;;10.00;;
68386;SDS011;55338;43.062;25.624;2022-12-18T15:14:31;24.83;;;9.63;;
68386;SDS011;55338;43.062;25.624;2022-12-18T15:17:06;21.13;;;9.37;;
68386;SDS011;55338;43.062;25.624;2022-12-18T15:19:42;22.88;;;9.90;;
68386;SDS011;55338;43.062;25.624;2022-12-18T15:22:42;21.98;;;9.70;;
68386;SDS011;55338;43.062;25.624;2022-12-18T15:25:02;21.83;;;10.32;;
68386;SDS011;55338;43.062;25.624;2022-12-18T15:27:46;25.85;;;10.10;;
68386;SDS011;55338;43.062;25.624;2022-12-18T15:32:44;19.58;;;8.35;;
68386;SDS011;55338;43.062;25.624;2022-12-18T15:37:40;22.02;;;9.07;;
68386;SDS011;55338;43.062;25.624;2022-12-18T15:40:07;21.92;;;10.07;;
68386;SDS011;55338;43.062;25.624;2022-12-18T15:42:36;22.13;;;9.17;;
68386;SDS011;55338;43.062;25.624;2022-12-18T15:45:20;22.45;;;10.02;;
68386;SDS011;55338;43.062;25.624;2022-12-18T15:47:46;20.67;;;9.10;;
68386;SDS011;55338;43.062;25.624;2022-12-18T15:50:12;18.57;;;7.50;;
68386;SDS011;55338;43.062;25.624;2022-12-18T15:52:41;19.52;;;7.95;;
68386;SDS011;55338;43.062;25.624;2022-12-18T15:55:12;23.42;;;9.35;;
68386;SDS011;55338;43.062;25.624;2022-12-18T15:58:02;20.75;;;8.57;;
68386;SDS011;55338;43.062;25.624;2022-12-18T16:00:28;23.77;;;9.88;;
68386;SDS011;55338;43.062;25.624;2022-12-18T16:02:54;23.15;;;9.38;;
68386;SDS011;55338;43.062;25.624;2022-12-18T16:05:20;21.83;;;10.40;;
68386;SDS011;55338;43.062;25.624;2022-12-18T16:07:47;25.15;;;10.60;;
68386;SDS011;55338;43.062;25.624;2022-12-18T16:10:13;26.30;;;10.40;;
68386;SDS011;55338;43.062;25.624;2022-12-18T16:12:39;23.38;;;10.13;;
68386;SDS011;55338;43.062;25.624;2022-12-18T16:15:05;25.70;;;10.38;;
68386;SDS011;55338;43.062;25.624;2022-12-18T16:17:32;23.25;;;9.82;;
68386;SDS011;55338;43.062;25.624;2022-12-18T16:19:57;21.20;;;9.02;;
68386;SDS011;55338;43.062;25.624;2022-12-18T16:22:24;24.00;;;9.13;;
68386;SDS011;55338;43.062;25.624;2022-12-18T16:24:52;23.08;;;9.90;;
68386;SDS011;55338;43.062;25.624;2022-12-18T16:27:19;24.92;;;10.45;;
68386;SDS011;55338;43.062;25.624;2022-12-18T16:29:45;23.58;;;10.32;;
68386;SDS011;55338;43.062;25.624;2022-12-18T16:32:12;24.85;;;10.25;;
68386;SDS011;55338;43.062;25.624;2022-12-18T16:34:47;28.10;;;10.55;;
68386;SDS011;55338;43.062;25.624;2022-12-18T16:37:14;24.80;;;10.43;;
68386;SDS011;55338;43.062;25.624;2022-12-18T16:39:40;26.95;;;10.70;;
68386;SDS011;55338;43.062;25.624;2022-12-18T16:42:10;22.63;;;9.50;;